• Join FlightAware (Why Join?)
  • Login
  • US Flag 
02:44PM EDT


 

Airport Tracker/Info


-or-


 

Live Flight TrackerFlight Track Log ✈ UAL479 ✈ 05-Apr-2013 ✈ KPDX - KORD

Flight Track Log - Related Links

Times and Time Zones

All times are in EDT time to prevent confusion due to time zone crossing. See the UAL479 flight status page for this flight to view local times or setup timezone preferences in your user account.

Time Position Orientation Groundspeed Altitude Reporting Facility
EDT Latitude Longitude Course Direction KTS MPH feet Rate Location/Type
02:53AM 45.5850 -122.5739 90° East 155 178 500  Level Seattle Center
02:54AM 45.5767 -122.5217 103° East 185 213 1,800 2,040 Climbing Seattle Center
02:55AM 45.5633 -122.4344 102° East 248 285 4,100 2,280 Climbing Seattle Center
02:56AM 45.7334 -122.2624 90° East  Level FlightAware Approximate
02:56AM 45.5953 -122.3256 67° East 332 382 6,400  Level Seattle Center
02:57AM 45.7334 -122.0838 90° East  Level FlightAware Approximate
02:57AM 45.6339 -122.2075 65° Northeast 331 381 9,000  Level Seattle Center
02:58AM 45.7333 -121.9052 90° East  Level FlightAware Approximate
02:58AM 45.6744 -122.0817 65° Northeast 344 396 10,800  Level Seattle Center
02:59AM 45.7206 -121.9369 65° Northeast 389 448 12,300 1,800 Climbing Seattle Center
03:00AM 45.7456 -121.7969 76° East 410 472 14,500 2,220 Climbing Seattle Center
03:01AM 45.7458 -121.6350 90° East 407 468 16,800 1,860 Climbing Seattle Center
03:02AM 45.7439 -121.4728 91° East 408 470 18,300 1,800 Climbing Seattle Center
03:03AM 45.7433 -121.3044 90° East 418 481 20,500 1,500 Climbing Seattle Center
03:04AM 45.7403 -121.1364 91° East 423 487 21,300 840 Climbing Seattle Center
03:05AM 45.7408 -120.9539 90° East 453 521 22,200 1,440 Climbing Seattle Center
03:06AM 45.7375 -120.7617 91° East 478 550 24,300 1,980 Climbing Seattle Center
03:07AM 45.7342 -120.5644 91° East 493 567 26,300 1,680 Climbing Seattle Center
03:08AM 45.7314 -120.3642 91° East 500 575 27,700 1,260 Climbing Seattle Center
03:09AM 45.7275 -120.1644 92° East 501 577 28,900 1,200 Climbing Seattle Center
03:10AM 45.7231 -119.9664 92° East 498 573 30,200 1,260 Climbing Seattle Center
03:11AM 45.7189 -119.7681 92° East 497 572 31,500 1,140 Climbing Seattle Center
03:12AM 45.7153 -119.5744 91° East 489 563 32,600 1,140 Climbing Seattle Center
03:13AM 45.7097 -119.3819 92° East 486 559 33,800 1,020 Climbing Seattle Center
03:14AM 45.7042 -119.1911 92° East 480 552 34,700 540 Climbing Seattle Center
03:15AM 45.7008 -119.0019 91° East 477 549 35,000 120 Climbing Seattle Center
03:16AM 45.7042 -118.8106 89° East 482 555 35,000  Level Seattle Center
03:17AM 45.7150 -118.6211 85° East 479 551 35,000 -60 Level Seattle Center
03:18AM 45.7258 -118.4142 86° East 485 558 34,900  Descending Seattle Center
03:19AM 45.7356 -118.2233 86° East 486 559 35,000  Climbing Seattle Center
03:20AM 45.7436 -118.0311 86° East 486 559 34,900  Descending Seattle Center
03:21AM 45.7528 -117.8417 86° East 481 554 35,000  Climbing Seattle Center
03:22AM 45.7611 -117.6486 86° East 485 558 34,900 -60 Descending Seattle Center
03:23AM 45.7692 -117.4589 86° East 484 557 34,900  Level Seattle Center
03:24AM 45.7761 -117.2606 87° East 487 560 35,000  Climbing Seattle Center
03:25AM 45.7839 -117.0750 86° East 484 557 35,000 -60 Level Seattle Center
03:26AM 45.7903 -116.8825 87° East 486 559 34,900  Descending Seattle Center
03:27AM 45.7964 -116.6911 87° East 485 558 35,000  Climbing Seattle Center
03:28AM 45.8033 -116.4978 87° East 487 560 34,900 -60 Descending Seattle Center
03:29AM 45.8097 -116.3044 87° East 488 562 34,900  Level Seattle Center
03:30AM 45.8153 -116.1122 88° East 487 560 34,900  Level Seattle Center
03:31AM 45.8197 -115.9175 88° East 491 565 34,900 60 Level Seattle Center
03:32AM 45.8250 -115.7706 87° East 491 565 35,000 60 Climbing Salt Lake Center
03:33AM 45.8294 -115.5864 88° East 486 559 35,000  Level Salt Lake Center
03:33AM 45.8308 -115.5269 88° East 490 564 35,000  Level Seattle Center
03:34AM 45.8347 -115.3694 88° East 487 560 35,000  Level Salt Lake Center
03:35AM 45.8389 -115.1864 88° East 482 555 35,000  Level Salt Lake Center
03:36AM 45.8414 -115.0017 89° East 483 556 35,000  Level Salt Lake Center
03:37AM 45.8461 -114.8175 88° East 483 556 35,000  Level Salt Lake Center
03:38AM 45.8494 -114.6019 89° East 483 556 35,000  Level Salt Lake Center
03:39AM 45.8514 -114.4181 89° East 483 556 35,000  Level Salt Lake Center
03:40AM 45.8544 -114.2322 89° East 486 559 35,000  Level Salt Lake Center
03:41AM 45.8564 -114.0386 89° East 489 563 35,000 -60 Level Salt Lake Center
03:42AM 45.8589 -113.8467 89° East 484 557 34,900  Descending Salt Lake Center
03:43AM 45.8594 -113.6275 90° East 490 564 35,000  Climbing Salt Lake Center
03:44AM 45.8619 -113.4500 89° East 485 558 35,000  Level Salt Lake Center
03:45AM 45.8625 -113.2589 90° East 483 556 35,000  Level Salt Lake Center
03:46AM 45.8625 -113.0650 90° East 486 559 35,000  Level Salt Lake Center
03:47AM 45.8628 -112.8681 90° East 492 566 35,000  Level Salt Lake Center
03:48AM 45.8642 -112.6731 89° East 490 564 35,000  Level Salt Lake Center
03:49AM 45.8625 -112.4783 91° East 490 564 35,000  Level Salt Lake Center
03:50AM 45.8611 -112.2839 91° East 489 563 35,000  Level Salt Lake Center
03:51AM 45.8611 -112.0881 90° East 491 565 35,000  Level Salt Lake Center
03:52AM 45.8611 -111.8917 90° East 492 566 35,000 -60 Level Salt Lake Center
03:53AM 45.8608 -111.6956 90° East 492 566 34,900  Descending Salt Lake Center
03:54AM 45.8600 -111.4981 90° East 496 571 35,000  Climbing Salt Lake Center
03:55AM 45.8586 -111.2956 90° East 500 575 35,000  Level Salt Lake Center
03:56AM 45.8569 -111.0861 91° East 503 579 35,000  Level Salt Lake Center
03:57AM 45.8550 -110.8828 91° East 500 575 35,000 -60 Level Salt Lake Center
03:58AM 45.8533 -110.6814 91° East 503 579 34,900  Descending Salt Lake Center
03:59AM 45.8500 -110.4733 91° East 505 581 35,000  Climbing Salt Lake Center
04:00AM 45.8472 -110.2839 91° East 499 574 35,000  Level Salt Lake Center
04:01AM 45.8447 -110.1058 91° East 475 547 35,000  Level Salt Lake Center
04:02AM 45.8414 -109.9192 91° East 484 557 35,000 -60 Level Salt Lake Center
04:03AM 45.8389 -109.7042 91° East 483 556 34,900 -60 Descending Salt Lake Center
04:04AM 45.8339 -109.5225 92° East 477 549 34,900  Level Salt Lake Center
04:05AM 45.8292 -109.3400 92° East 478 550 35,000  Climbing Salt Lake Center
04:06AM 45.8236 -109.1250 92° East 482 555 35,000  Level Salt Lake Center
04:07AM 45.8183 -108.9403 92° East 483 556 35,000  Level Salt Lake Center
04:08AM 45.8128 -108.7547 92° East 486 559 35,000  Level Salt Lake Center
04:09AM 45.8067 -108.5658 93° East 492 566 35,000  Level Salt Lake Center
04:10AM 45.7875 -108.3461 97° East 498 573 35,000  Level Salt Lake Center
04:11AM 45.7725 -108.1550 96° East 501 577 35,000  Level Salt Lake Center
04:12AM 45.7581 -107.9667 96° East 497 572 35,000  Level Salt Lake Center
04:13AM 45.7431 -107.7783 96° East 497 572 35,000  Level Salt Lake Center
04:14AM 45.7244 -107.5619 97° East 490 564 35,000  Level Salt Lake Center
04:15AM 45.7092 -107.3778 97° East 486 559 35,000  Level Salt Lake Center
04:16AM 45.6939 -107.1936 97° East 487 560 35,000  Level Salt Lake Center
04:17AM 45.6758 -107.0056 98° East 494 568 35,000  Level Salt Lake Center
04:18AM 45.6542 -106.7897 98° East 493 567 35,000  Level Salt Lake Center
04:19AM 45.6369 -106.6053 98° East 491 565 35,000  Level Salt Lake Center
04:20AM 45.6244 -106.4281 96° East 477 549 35,000  Level Salt Lake Center
04:21AM 45.6072 -106.2458 98° East 480 552 35,000  Level Salt Lake Center
04:22AM 45.5869 -106.0386 98° East 475 547 35,000 -60 Level Salt Lake Center
04:23AM 45.5700 -105.8608 98° East 473 544 34,900  Descending Salt Lake Center
04:24AM 45.5514 -105.6817 98° East 476 548 35,000  Climbing Salt Lake Center
04:25AM 45.5306 -105.4744 98° East 474 545 35,000  Level Salt Lake Center
04:26AM 45.5119 -105.2944 98° East 478 550 35,000  Level Salt Lake Center
04:27AM 45.4933 -105.1161 98° East 477 549 35,000  Level Salt Lake Center
04:28AM 45.4742 -104.9353 99° East 480 552 35,000  Level Salt Lake Center
04:29AM 45.4508 -104.7256 99° East 481 554 35,000  Level Salt Lake Center
04:30AM 45.4311 -104.5472 99° East 478 550 35,000 -60 Level Salt Lake Center
04:31AM 45.4114 -104.3717 99° East 472 543 34,900 -60 Descending Salt Lake Center
04:32AM 45.3906 -104.1908 99° East 468 539 34,900  Level Salt Lake Center
04:33AM 45.3703 -104.0111 99° East 464 534 34,900  Level Salt Lake Center
04:34AM 45.3483 -103.8278 100° East 470 541 34,900  Level Salt Lake Center
04:35AM 45.3269 -103.6431 99° East 475 547 35,000  Climbing Salt Lake Center
04:36AM 45.3042 -103.4578 100° East 478 550 35,000  Level Salt Lake Center
04:37AM 45.2817 -103.2717 100° East 480 552 35,000  Level Salt Lake Center
04:38AM 45.2583 -103.0839 100° East 483 556 35,000  Level Salt Lake Center
04:39AM 45.2436 -102.9672 100° East 478 550 35,000  Level Minneapolis Center
04:40AM 45.2203 -102.7828 100° East 477 549 35,000  Level Minneapolis Center
04:41AM 45.1967 -102.6000 100° East 474 545 35,000  Level Minneapolis Center
04:42AM 45.1725 -102.4181 101° East 472 543 35,000  Level Minneapolis Center
04:43AM 45.1494 -102.2381 100° East 467 537 35,000  Level Minneapolis Center
04:44AM 45.1261 -102.0600 100° East 463 533 35,000 -60 Level Minneapolis Center
04:45AM 45.1019 -101.8828 101° East 461 531 34,900  Descending Minneapolis Center
04:46AM 45.0756 -101.7039 102° East 463 533 35,000  Climbing Minneapolis Center
04:47AM 45.0311 -101.5331 110° East 463 533 35,000  Level Minneapolis Center
04:48AM 44.9853 -101.3642 111° Southeast 462 532 35,000  Level Minneapolis Center
04:49AM 44.9417 -101.1986 110° East 455 524 35,000  Level Minneapolis Center
04:50AM 44.8878 -101.0025 111° Southeast 450 518 35,000 -60 Level Minneapolis Center
04:51AM 44.8439 -100.8383 111° Southeast 450 518 34,900  Descending Minneapolis Center
04:52AM 44.8003 -100.6758 111° Southeast 448 516 35,000  Climbing Minneapolis Center
04:53AM 44.7550 -100.5108 111° Southeast 452 520 35,000  Level Minneapolis Center
04:54AM 44.7000 -100.3114 111° Southeast 458 527 35,000  Level Minneapolis Center
04:55AM 44.6542 -100.1472 111° Southeast 457 526 35,000  Level Minneapolis Center
04:56AM 44.6086 -99.9822 111° Southeast 458 527 35,000  Level Minneapolis Center
04:57AM 44.5628 -99.8172 111° Southeast 458 527 35,000  Level Minneapolis Center
04:58AM 44.5150 -99.6514 112° Southeast 460 529 35,000  Level Minneapolis Center
04:59AM 44.4678 -99.4833 111° Southeast 464 534 35,000  Level Minneapolis Center
05:00AM 44.4208 -99.3169 112° Southeast 463 533 35,000  Level Minneapolis Center
05:01AM 44.3717 -99.1497 112° Southeast 465 535 35,000  Level Minneapolis Center
05:02AM 44.3228 -98.9839 112° Southeast 464 534 35,000  Level Minneapolis Center
05:03AM 44.2750 -98.8183 112° Southeast 462 532 35,000  Level Minneapolis Center
05:04AM 44.2203 -98.6375 113° Southeast 463 533 35,000  Level Minneapolis Center
05:05AM 44.1717 -98.4711 112° Southeast 466 536 35,000  Level Minneapolis Center
05:06AM 44.1214 -98.3058 113° Southeast 466 536 35,000  Level Minneapolis Center
05:07AM 44.0708 -98.1408 113° Southeast 466 536 35,000  Level Minneapolis Center
05:08AM 44.0217 -97.9750 112° Southeast 466 536 35,000  Level Minneapolis Center
05:09AM 43.9872 -97.8000 105° East 472 543 35,000  Level Minneapolis Center
05:10AM 43.9678 -97.6203 98° East 473 544 35,000  Level Minneapolis Center
05:11AM 43.9444 -97.4414 100° East 474 545 35,000  Level Minneapolis Center
05:12AM 43.9214 -97.2639 100° East 472 543 35,000  Level Minneapolis Center
05:13AM 43.8986 -97.0833 100° East 476 548 35,000  Level Minneapolis Center
05:14AM 43.8742 -96.9031 101° East 478 550 35,000  Level Minneapolis Center
05:15AM 43.8517 -96.7217 100° East 480 552 35,000  Level Minneapolis Center
05:16AM 43.8269 -96.5433 101° East 477 549 35,000  Level Minneapolis Center
05:17AM 43.8028 -96.3642 101° East 479 551 35,000  Level Minneapolis Center
05:18AM 43.7783 -96.1861 101° East 478 550 35,000  Level Minneapolis Center
05:19AM 43.7542 -96.0069 101° East 479 551 35,000  Level Minneapolis Center
05:20AM 43.7286 -95.8275 101° East 480 552 35,000  Level Minneapolis Center
05:21AM 43.7028 -95.6469 101° East 481 554 35,000  Level Minneapolis Center
05:22AM 43.6767 -95.4664 101° East 483 556 35,000  Level Minneapolis Center
05:23AM 43.6444 -95.2489 101° East 485 558 35,000  Level Minneapolis Center
05:24AM 43.6178 -95.0675 101° East 484 557 35,000  Level Minneapolis Center
05:25AM 43.5911 -94.8878 102° East 482 555 35,000  Level Minneapolis Center
05:26AM 43.5625 -94.7078 102° East 483 556 35,000  Level Minneapolis Center
05:27AM 43.5353 -94.5275 102° East 483 556 35,000  Level Minneapolis Center
05:28AM 43.5075 -94.3486 102° East 481 554 35,000  Level Minneapolis Center
05:29AM 43.4819 -94.1839 102° East 484 557 35,000  Level Minneapolis Center
05:30AM 43.4536 -94.0036 102° East 486 559 35,000  Level Minneapolis Center
05:31AM 43.4244 -93.8236 103° East 485 558 35,000  Level Minneapolis Center
05:32AM 43.3956 -93.6450 102° East 485 558 35,000  Level Minneapolis Center
05:33AM 43.3667 -93.4656 102° East 485 558 35,000  Level Minneapolis Center
05:34AM 43.3361 -93.2886 103° East 482 555 35,000  Level Minneapolis Center
05:35AM 43.3067 -93.1086 103° East 486 559 35,000  Level Minneapolis Center
05:36AM 43.2764 -92.9253 103° East 488 562 35,000  Level Minneapolis Center
05:37AM 43.2453 -92.7481 103° East 490 564 35,000  Level Minneapolis Center
05:38AM 43.2139 -92.5681 103° East 489 563 35,000  Level Minneapolis Center
05:39AM 43.1764 -92.3525 103° East 489 563 35,000  Level Minneapolis Center
05:40AM 43.1436 -92.1675 104° East 489 563 35,000  Level Minneapolis Center
05:41AM 43.1125 -91.9906 103° East 490 564 35,000  Level Minneapolis Center
05:42AM 43.0803 -91.8069 103° East 493 567 35,000  Level Minneapolis Center
05:43AM 43.0478 -91.6236 104° East 494 568 35,000  Level Minneapolis Center
05:44AM 43.0133 -91.4406 104° East 494 568 35,000  Level Minneapolis Center
05:45AM 42.9756 -91.2594 106° East 493 567 35,000  Level Minneapolis Center
05:46AM 42.9389 -91.0800 106° East 492 566 35,000  Level Minneapolis Center
05:47AM 42.9014 -90.9000 106° East 494 568 35,000  Level Minneapolis Center
05:48AM 42.8636 -90.7208 106° East 494 568 35,000 -120 Level Minneapolis Center
05:49AM 42.8261 -90.5417 106° East 495 570 34,800 -600 Descending Minneapolis Center
05:50AM 42.7875 -90.3617 106° East 496 571 33,900 -1,680 Descending Minneapolis Center
05:51AM 42.7497 -90.1789 106° East 496 571 31,500 -2,640 Descending Minneapolis Center
05:53AM 42.7039 -89.9642 106° East 505 581 28,200 -2,640 Descending Chicago Center
05:54AM 42.6644 -89.7856 107° East 499 574 25,700 -2,520 Descending Chicago Center
05:55AM 42.6258 -89.6114 107° East 488 562 23,200 -2,640 Descending Chicago Center
05:56AM 42.5900 -89.4439 106° East 469 540 20,400 -2,580 Descending Chicago Center
05:57AM 42.5539 -89.2864 107° East 445 512 18,100 -2,220 Descending Chicago Center
05:58AM 42.5192 -89.1322 107° East 431 496 16,000 -2,100 Descending Chicago Center
05:59AM 42.4861 -88.9847 107° East 418 481 13,900 -2,100 Descending Chicago Center
06:00AM 42.4533 -88.8400 107° East 406 467 11,800 -1,320 Descending Chicago Center
06:02AM 42.3944 -88.5836 107° East 339 390 9,900 -1,020 Descending Chicago Center
06:03AM 42.3661 -88.4731 109° East 317 365 8,800 -1,260 Descending Chicago Center
06:04AM 42.2997 -88.4133 146° Southeast 302 348 7,400 -1,380 Descending Chicago Center
06:05AM 42.2322 -88.3633 151° Southeast 282 325 6,100 -1,320 Descending Chicago Center
06:06AM 42.1681 -88.3158 151° Southeast 270 311 4,800 -1,080 Descending Chicago Center
06:07AM 42.1078 -88.2706 151° Southeast 256 295 4,000 -420 Descending Chicago Center
06:08AM 42.0486 -88.2319 154° Southeast 244 281 4,000  Level Chicago Center
06:09AM 42.0050 -88.1814 139° Southeast 221 254 4,000 -180 Level Chicago Center
06:09AM 41.9833 -88.1167 114° Southeast 189 217 3,700 -900 Descending Chicago TRACON
06:10AM 41.9667 -88.0500 109° East 182 209 2,500 -1,200 Descending Chicago TRACON